Airfield :
LOGIN :

Register | Disclaimer

   EN    FR    IT 

 










Legend :    VFR   Marginal VFR   IFR   Intensive IFR   Very Intensive IFR
Visi :
Ceiling :
>= 8 km
>= 3000ft
5 to 8 km
1000 to 3000 ft
1500m to 5 km
500 to 1000 ft
800 to 1500m
200 to 500 ft
< 800m
< 200 ft
Symbols :   Thunderstorms  Fog  Heavy snow  Heavy precipitations  Wind > 20 kt
SIGMETs :     Misc.  Thunderstorms  Icing  Turbulence  Mountain Waves  Volcanic Ashes







- Airport Elevation : 195 ft
- Download approach charts


LFMY - Salon de Provence

CURRENT METAR :
  • 151200Z AUTO 13005KT 080V190 9999 FEW035 19/12 Q1023 NOSIG

EXPIRED METARs :
  • 151130Z AUTO 04004KT 330V080 CAVOK 19/12 Q1023 NOSIG
  • 151100Z AUTO 06004KT 020V090 CAVOK 18/12 Q1023 NOSIG
  • 151030Z AUTO 06005KT CAVOK 18/12 Q1024 NOSIG
  • 151000Z AUTO 07005KT CAVOK 16/12 Q1024 NOSIG
  • 150930Z AUTO 07006KT CAVOK 16/11 Q1024 NOSIG

TAF TAF LFMY
Valid from the 15 at 09:00 until the 16 at 09:00 UTC


150800Z 1509/1609 07005KT 9999 FEW030
BECMG 1514/1516 VRB02KT
TEMPO 1600/1606 5000 BR
No reported NOTAMs for that airfield.



MET'MAP, your aeronautical weather chart ! - Copyright ORBIFLY December 2007 - Disclaimer

ORBIFLY MET'MAP TEAM :

Programming & Development : Alexandra Zaïnal
Concept & Development : Baudouin d'Aumeries
Co-Development & Prog : Marc-Olivier Méhu
Technical & hardware support : Manuel Goepfert

Contact : metmap@orbifly.com




SOURCES & CREDITS :

   NOAA